Time;durP1;ratioP1;P1;durP2;ratioP2;P2;SDS_P1;SDS_P2;PMS_P1;PMS_P2;Temp;Humidity;BMP_temperature;BMP_pressure;BME280_temperature;BME280_humidity;BME280_pressure;Samples;Min_cycle;Max_cycle;Signal;HPM_P1;HPM_P2
2023/10/10 00:00:49;;;;;;;21.10;8.00;;;;;;;;;;5177244;27;20069;-71
2023/10/10 00:03:38;;;;;;;22.08;7.93;;;;;;;;;;5162521;27;20046;-71
2023/10/10 00:06:25;;;;;;;18.52;8.48;;;;;;;;;;5177826;27;20026;-71
2023/10/10 00:09:11;;;;;;;19.92;7.68;;;;;;;;;;5162587;27;20022;-71
2023/10/10 00:11:58;;;;;;;23.42;8.52;;;;;;;;;;5177445;27;20030;-72
2023/10/10 00:14:45;;;;;;;17.77;8.10;;;;;;;;;;5176599;27;20022;-72
2023/10/10 00:17:34;;;;;;;21.83;7.88;;;;;;;;;;5176931;27;20022;-72
2023/10/10 00:20:21;;;;;;;22.48;8.55;;;;;;;;;;5176003;27;20467;-71
2023/10/10 00:23:16;;;;;;;31.13;8.13;;;;;;;;;;5177442;27;20026;-71
2023/10/10 00:26:04;;;;;;;18.02;7.85;;;;;;;;;;5161197;27;20473;-71
2023/10/10 00:28:57;;;;;;;24.98;7.78;;;;;;;;;;5177185;27;20101;-71
2023/10/10 00:31:45;;;;;;;14.40;7.15;;;;;;;;;;5175887;27;20041;-71
2023/10/10 00:34:33;;;;;;;20.52;7.32;;;;;;;;;;5176980;27;20053;-71
2023/10/10 00:37:25;;;;;;;16.85;7.10;;;;;;;;;;5176899;27;20488;-71
2023/10/10 00:40:17;;;;;;;20.15;8.02;;;;;;;;;;5177421;27;20014;-72
2023/10/10 00:43:04;;;;;;;18.30;7.47;;;;;;;;;;5176508;27;20024;-71
2023/10/10 00:45:54;;;;;;;20.60;7.72;;;;;;;;;;5179260;27;20033;-71
2023/10/10 00:48:40;;;;;;;19.80;7.75;;;;;;;;;;5182635;27;20045;-70
2023/10/10 00:51:29;;;;;;;20.77;7.65;;;;;;;;;;5178300;27;20034;-71
2023/10/10 00:57:08;;;;;;;20.50;7.28;;;;;;;;;;5176149;27;20082;-72
2023/10/10 00:59:54;;;;;;;25.10;7.57;;;;;;;;;;5176025;27;20046;-71
2023/10/10 01:02:42;;;;;;;16.60;6.95;;;;;;;;;;5176280;27;20018;-71
2023/10/10 01:05:39;;;;;;;17.60;6.45;;;;;;;;;;5176202;27;20385;-70
2023/10/10 01:08:31;;;;;;;21.08;6.93;;;;;;;;;;5177209;27;20028;-71
2023/10/10 01:11:17;;;;;;;16.30;6.45;;;;;;;;;;5175701;27;20041;-71
2023/10/10 01:14:04;;;;;;;19.45;6.80;;;;;;;;;;5161431;27;20023;-71
2023/10/10 01:17:01;;;;;;;15.32;6.80;;;;;;;;;;5175755;27;20026;-71
2023/10/10 01:19:47;;;;;;;14.88;6.18;;;;;;;;;;5183931;27;20026;-72
2023/10/10 01:22:39;;;;;;;13.98;5.90;;;;;;;;;;5163679;27;20010;-70
2023/10/10 01:25:41;;;;;;;11.95;6.03;;;;;;;;;;5161602;27;20018;-71
2023/10/10 01:28:36;;;;;;;15.23;6.47;;;;;;;;;;5176360;27;20375;-72
2023/10/10 01:31:24;;;;;;;17.88;5.95;;;;;;;;;;5176823;27;20037;-71
2023/10/10 01:34:09;;;;;;;15.13;6.10;;;;;;;;;;5164055;27;20514;-71
2023/10/10 01:36:57;;;;;;;19.35;6.93;;;;;;;;;;5180860;27;20432;-70
2023/10/10 01:39:53;;;;;;;13.68;6.07;;;;;;;;;;5180083;27;20463;-72
2023/10/10 01:42:44;;;;;;;17.27;6.80;;;;;;;;;;5165219;27;20074;-72
2023/10/10 01:45:30;;;;;;;19.05;6.20;;;;;;;;;;5180297;27;20053;-72
2023/10/10 01:48:17;;;;;;;12.23;6.80;;;;;;;;;;5180137;27;20033;-73
2023/10/10 01:51:07;;;;;;;20.48;7.15;;;;;;;;;;5164743;27;20364;-72
2023/10/10 01:53:55;;;;;;;15.13;6.90;;;;;;;;;;5163897;27;20371;-72
2023/10/10 01:56:42;;;;;;;21.40;6.72;;;;;;;;;;5179421;27;20025;-72
2023/10/10 01:59:35;;;;;;;20.40;6.65;;;;;;;;;;5179333;27;20049;-72
2023/10/10 02:02:23;;;;;;;10.93;5.35;;;;;;;;;;5164803;27;20420;-72
2023/10/10 02:05:11;;;;;;;16.60;5.90;;;;;;;;;;5179401;27;20019;-72
2023/10/10 02:07:57;;;;;;;12.30;4.80;;;;;;;;;;5178870;27;20022;-72
2023/10/10 02:10:46;;;;;;;11.90;4.93;;;;;;;;;;5179061;27;20021;-70
2023/10/10 02:13:33;;;;;;;11.40;5.03;;;;;;;;;;5180297;27;20029;-71
2023/10/10 02:16:23;;;;;;;9.65;4.50;;;;;;;;;;5164218;27;20398;-72
2023/10/10 02:19:15;;;;;;;8.73;4.82;;;;;;;;;;5179483;27;20018;-70
2023/10/10 02:22:19;;;;;;;13.00;5.15;;;;;;;;;;5179837;27;20030;-71
2023/10/10 02:28:19;;;;;;;14.98;5.85;;;;;;;;;;5179736;27;20018;-70
2023/10/10 02:31:05;;;;;;;13.98;5.43;;;;;;;;;;5178367;27;20026;-71
2023/10/10 02:34:03;;;;;;;12.32;5.05;;;;;;;;;;5178388;27;20118;-72
2023/10/10 02:37:10;;;;;;;14.23;4.85;;;;;;;;;;5178404;27;20101;-72
2023/10/10 02:40:12;;;;;;;12.05;4.60;;;;;;;;;;5179082;27;20093;-72
2023/10/10 02:43:19;;;;;;;7.20;3.65;;;;;;;;;;5164106;27;20010;-71
2023/10/10 02:46:05;;;;;;;8.18;4.03;;;;;;;;;;5179424;27;20132;-72
2023/10/10 02:48:55;;;;;;;7.95;3.97;;;;;;;;;;5179030;27;20042;-71
2023/10/10 02:51:48;;;;;;;9.43;3.67;;;;;;;;;;5178446;27;20026;-72
2023/10/10 02:54:35;;;;;;;8.80;3.92;;;;;;;;;;5180703;27;20023;-70
2023/10/10 02:57:26;;;;;;;9.23;3.75;;;;;;;;;;5165268;27;20348;-71
2023/10/10 03:00:28;;;;;;;5.47;3.40;;;;;;;;;;5182726;27;20070;-71
2023/10/10 03:03:18;;;;;;;8.98;3.30;;;;;;;;;;5167881;27;20075;-70
2023/10/10 03:06:07;;;;;;;7.70;3.60;;;;;;;;;;5165507;27;20070;-71
2023/10/10 03:08:55;;;;;;;8.38;3.47;;;;;;;;;;5163607;27;20029;-71
2023/10/10 03:11:53;;;;;;;12.70;3.30;;;;;;;;;;5178174;27;20022;-70
2023/10/10 03:14:43;;;;;;;13.75;3.88;;;;;;;;;;5163823;27;20027;-70
2023/10/10 03:17:31;;;;;;;11.32;3.47;;;;;;;;;;5177869;27;20018;-70
2023/10/10 03:20:49;;;;;;;8.07;3.53;;;;;;;;;;5178019;27;20428;-71
2023/10/10 03:23:51;;;;;;;7.38;3.58;;;;;;;;;;5178147;27;20033;-71
2023/10/10 03:30:17;;;;;;;8.93;3.85;;;;;;;;;;5178352;27;20354;-71
2023/10/10 03:33:00;;;;;;;7.43;3.53;;;;;;;;;;5178589;27;20483;-71
2023/10/10 03:35:58;;;;;;;12.98;3.60;;;;;;;;;;5178320;27;20034;-72
2023/10/10 05:25:50;;;;;;;25.95;9.93;;;;;;;;;;5178604;27;20351;-71
2023/10/10 05:28:40;;;;;;;21.17;10.07;;;;;;;;;;5182804;27;20024;-71
2023/10/10 05:31:30;;;;;;;17.63;10.73;;;;;;;;;;5159965;27;20018;-73
2023/10/10 05:34:16;;;;;;;24.13;10.27;;;;;;;;;;5176104;27;20432;-72
2023/10/10 05:37:01;;;;;;;23.85;10.20;;;;;;;;;;5161009;27;20431;-72
2023/10/10 05:39:47;;;;;;;20.30;10.68;;;;;;;;;;5175530;27;20355;-72
2023/10/10 05:42:34;;;;;;;22.05;10.32;;;;;;;;;;5160521;27;20158;-71
2023/10/10 05:45:20;;;;;;;21.33;10.88;;;;;;;;;;5175080;27;20046;-71
2023/10/10 05:48:06;;;;;;;23.13;11.52;;;;;;;;;;5176053;27;20030;-72
2023/10/10 05:50:53;;;;;;;25.13;11.75;;;;;;;;;;5175900;27;20081;-72
2023/10/10 05:53:39;;;;;;;31.05;11.85;;;;;;;;;;5160096;27;20022;-72
2023/10/10 05:56:25;;;;;;;28.73;11.27;;;;;;;;;;5176386;27;20122;-72
2023/10/10 05:59:11;;;;;;;25.50;10.77;;;;;;;;;;5175573;27;20053;-71
2023/10/10 06:01:56;;;;;;;25.58;11.48;;;;;;;;;;5176177;27;20032;-71
2023/10/10 06:04:43;;;;;;;23.15;10.68;;;;;;;;;;5175849;27;20037;-71
2023/10/10 06:07:30;;;;;;;20.95;10.43;;;;;;;;;;5175789;27;20014;-71
2023/10/10 06:10:16;;;;;;;17.45;9.82;;;;;;;;;;5175652;27;20018;-71
2023/10/10 06:13:03;;;;;;;23.58;10.85;;;;;;;;;;5176060;27;20022;-71
2023/10/10 06:15:50;;;;;;;19.20;9.95;;;;;;;;;;5175127;27;20014;-72
2023/10/10 06:18:35;;;;;;;21.35;10.98;;;;;;;;;;5177961;27;20114;-71
2023/10/10 06:21:21;;;;;;;18.05;10.77;;;;;;;;;;5178952;27;20082;-71
2023/10/10 06:24:08;;;;;;;23.55;11.60;;;;;;;;;;5179518;27;20022;-74
2023/10/10 06:27:00;;;;;;;23.17;11.55;;;;;;;;;;5163108;27;20445;-73
2023/10/10 06:29:48;;;;;;;24.17;10.88;;;;;;;;;;5162557;27;20033;-72
2023/10/10 06:32:35;;;;;;;26.63;11.50;;;;;;;;;;5164636;27;20347;-73
2023/10/10 06:38:12;;;;;;;23.80;10.35;;;;;;;;;;5178638;27;20018;-72
2023/10/10 06:40:59;;;;;;;28.40;10.77;;;;;;;;;;5164235;27;20113;-73
2023/10/10 06:43:46;;;;;;;20.20;12.10;;;;;;;;;;5162901;27;20041;-72
2023/10/10 06:46:32;;;;;;;22.10;10.57;;;;;;;;;;5179361;27;20018;-72
2023/10/10 06:49:20;;;;;;;22.92;11.00;;;;;;;;;;5178537;27;20413;-73
2023/10/10 06:52:06;;;;;;;27.13;11.95;;;;;;;;;;5180013;27;20037;-71
2023/10/10 06:54:55;;;;;;;16.70;10.38;;;;;;;;;;5179448;27;20162;-73
2023/10/10 06:57:43;;;;;;;21.15;11.07;;;;;;;;;;5163304;27;20506;-72
2023/10/10 07:00:45;;;;;;;21.15;10.80;;;;;;;;;;5164026;27;20355;-73
2023/10/10 07:03:33;;;;;;;21.08;10.38;;;;;;;;;;5178897;27;20351;-72
2023/10/10 07:06:21;;;;;;;24.88;10.15;;;;;;;;;;5162836;27;20105;-72
2023/10/10 07:12:13;;;;;;;19.15;9.65;;;;;;;;;;5179076;27;20026;-72
2023/10/10 07:15:00;;;;;;;21.08;9.70;;;;;;;;;;5178924;27;20424;-72
2023/10/10 07:17:49;;;;;;;17.88;9.40;;;;;;;;;;5178391;27;20353;-72
2023/10/10 07:23:53;;;;;;;16.67;9.18;;;;;;;;;;5178195;27;20352;-71
2023/10/10 07:26:42;;;;;;;18.40;9.90;;;;;;;;;;5177540;27;20105;-74
2023/10/10 07:29:30;;;;;;;36.20;10.98;;;;;;;;;;5177028;27;20055;-76
2023/10/10 07:32:16;;;;;;;20.92;9.73;;;;;;;;;;5179258;27;20074;-76
2023/10/10 07:35:02;;;;;;;22.17;10.02;;;;;;;;;;5178105;27;20034;-77
2023/10/10 07:37:52;;;;;;;15.55;9.13;;;;;;;;;;5178714;27;20025;-76
2023/10/10 07:40:38;;;;;;;20.83;8.82;;;;;;;;;;5162809;27;20025;-76
2023/10/10 07:43:27;;;;;;;21.58;8.57;;;;;;;;;;5177577;27;20436;-75
2023/10/10 07:46:19;;;;;;;14.60;8.02;;;;;;;;;;5177794;27;20026;-75
2023/10/10 07:49:08;;;;;;;24.08;8.55;;;;;;;;;;5177502;27;20356;-76
2023/10/10 07:51:54;;;;;;;17.65;8.40;;;;;;;;;;5177437;27;20026;-75
2023/10/10 07:54:40;;;;;;;28.63;9.23;;;;;;;;;;5177937;27;20031;-75
2023/10/10 07:57:28;;;;;;;23.17;9.35;;;;;;;;;;5177221;27;20022;-76
2023/10/10 08:00:17;;;;;;;11.82;7.47;;;;;;;;;;5176737;27;20125;-75
2023/10/10 08:03:04;;;;;;;14.35;7.47;;;;;;;;;;5176708;27;20026;-75
2023/10/10 08:05:52;;;;;;;12.20;6.63;;;;;;;;;;5176887;27;20027;-76
2023/10/10 08:08:40;;;;;;;13.38;5.63;;;;;;;;;;5177744;27;20014;-75
2023/10/10 08:11:35;;;;;;;12.85;5.60;;;;;;;;;;5177186;27;20037;-76
2023/10/10 08:14:29;;;;;;;12.63;5.15;;;;;;;;;;5176800;27;20018;-75
2023/10/10 08:17:25;;;;;;;14.43;5.50;;;;;;;;;;5161322;27;20462;-75
2023/10/10 08:20:31;;;;;;;12.63;5.00;;;;;;;;;;5162505;27;20033;-76
2023/10/10 08:23:17;;;;;;;12.52;5.68;;;;;;;;;;5176980;27;20375;-75
2023/10/10 08:26:02;;;;;;;14.77;5.50;;;;;;;;;;5162280;27;20106;-74
2023/10/10 08:28:48;;;;;;;13.32;4.35;;;;;;;;;;5176243;27;20029;-75
2023/10/10 08:31:38;;;;;;;9.40;3.85;;;;;;;;;;5176266;27;20082;-75
2023/10/10 08:34:24;;;;;;;10.63;3.55;;;;;;;;;;5176607;27;20436;-76
2023/10/10 08:37:10;;;;;;;9.75;3.00;;;;;;;;;;5177421;27;20078;-76
2023/10/10 08:39:56;;;;;;;11.18;3.47;;;;;;;;;;5161486;27;20440;-75
2023/10/10 08:42:44;;;;;;;15.65;6.10;;;;;;;;;;5177303;27;20018;-75
2023/10/10 08:45:39;;;;;;;7.47;3.40;;;;;;;;;;5177003;27;20037;-76
2023/10/10 08:48:27;;;;;;;7.90;3.00;;;;;;;;;;5175974;27;20018;-75
2023/10/10 08:51:12;;;;;;;5.32;3.05;;;;;;;;;;5176053;27;20404;-75
2023/10/10 08:54:02;;;;;;;6.85;3.05;;;;;;;;;;5179024;27;20026;-76
2023/10/10 08:57:00;;;;;;;8.07;3.80;;;;;;;;;;5176386;27;20037;-74
2023/10/10 08:59:52;;;;;;;13.77;4.65;;;;;;;;;;5176531;27;20059;-75
2023/10/10 09:02:39;;;;;;;12.02;4.93;;;;;;;;;;5175973;27;20021;-74
2023/10/10 09:05:28;;;;;;;14.93;5.68;;;;;;;;;;5175369;27;20018;-76
2023/10/10 09:08:16;;;;;;;23.33;7.03;;;;;;;;;;5176619;27;20022;-75
2023/10/10 09:11:02;;;;;;;11.18;5.10;;;;;;;;;;5175743;27;20431;-76
2023/10/10 09:13:51;;;;;;;13.85;5.18;;;;;;;;;;5176460;27;20358;-75
2023/10/10 09:16:41;;;;;;;16.17;5.45;;;;;;;;;;5160830;27;20015;-75
2023/10/10 09:19:26;;;;;;;28.90;5.93;;;;;;;;;;5176072;27;20018;-75
2023/10/10 09:22:25;;;;;;;13.77;4.97;;;;;;;;;;5175397;27;20053;-75
2023/10/10 09:25:42;;;;;;;14.50;4.63;;;;;;;;;;5161174;27;20431;-74
2023/10/10 09:28:41;;;;;;;7.72;4.75;;;;;;;;;;5160217;27;20037;-75
2023/10/10 09:31:30;;;;;;;10.98;4.85;;;;;;;;;;5175763;27;20074;-76
2023/10/10 09:34:22;;;;;;;10.93;4.75;;;;;;;;;;5176984;27;20060;-76
2023/10/10 09:37:13;;;;;;;10.95;5.18;;;;;;;;;;5176576;27;20449;-74
2023/10/10 09:40:00;;;;;;;10.27;4.40;;;;;;;;;;5161866;27;20404;-74
2023/10/10 09:43:24;;;;;;;12.30;4.60;;;;;;;;;;5176444;27;20050;-74
2023/10/10 09:46:10;;;;;;;11.93;4.30;;;;;;;;;;5177364;27;20014;-75
2023/10/10 09:49:16;;;;;;;10.20;4.00;;;;;;;;;;5162316;27;20038;-74
2023/10/10 10:00:52;;;;;;;14.57;3.13;;;;;;;;;;5181168;27;20052;-75
2023/10/10 10:03:49;;;;;;;9.30;3.90;;;;;;;;;;5181333;27;20029;-74
2023/10/10 10:06:41;;;;;;;9.55;3.78;;;;;;;;;;5180582;27;20026;-74
2023/10/10 10:09:51;;;;;;;6.35;3.50;;;;;;;;;;5180729;27;20022;-74
2023/10/10 10:12:41;;;;;;;9.73;3.50;;;;;;;;;;5165300;27;20023;-75
2023/10/10 10:15:48;;;;;;;7.40;4.28;;;;;;;;;;5180275;27;20027;-76
2023/10/10 10:18:44;;;;;;;14.15;3.58;;;;;;;;;;5164305;27;20018;-75
2023/10/10 10:21:33;;;;;;;9.70;3.30;;;;;;;;;;5180918;27;20106;-75
2023/10/10 10:24:27;;;;;;;10.80;3.38;;;;;;;;;;5165026;27;20066;-75
2023/10/10 10:27:31;;;;;;;6.43;3.05;;;;;;;;;;5165514;27;20018;-75
2023/10/10 10:33:09;;;;;;;9.02;3.08;;;;;;;;;;5179512;27;20053;-73
2023/10/10 10:35:57;;;;;;;8.00;4.03;;;;;;;;;;5162869;27;20073;-73
2023/10/10 10:39:19;;;;;;;7.75;2.85;;;;;;;;;;5178974;27;20058;-73
2023/10/10 10:41:55;;;;;;;9.48;3.08;;;;;;;;;;5179558;27;20324;-72
2023/10/10 10:44:45;;;;;;;7.50;2.67;;;;;;;;;;5164356;27;20049;-77
2023/10/10 10:47:46;;;;;;;4.53;2.67;;;;;;;;;;5162946;27;20389;-76
2023/10/10 10:50:46;;;;;;;5.65;2.40;;;;;;;;;;5178486;27;20462;-82
2023/10/10 10:53:35;;;;;;;9.93;3.08;;;;;;;;;;5178748;27;20110;-78
2023/10/10 10:59:13;;;;;;;5.70;2.40;;;;;;;;;;5182859;27;20018;-78
2023/10/10 11:01:59;;;;;;;8.27;2.35;;;;;;;;;;5162747;27;20405;-78
2023/10/10 11:04:49;;;;;;;8.13;3.15;;;;;;;;;;5178575;27;20018;-79
2023/10/10 11:07:41;;;;;;;10.55;3.58;;;;;;;;;;5178456;27;20019;-71
2023/10/10 11:10:36;;;;;;;11.95;2.97;;;;;;;;;;5178225;27;20517;-73
2023/10/10 11:13:22;;;;;;;5.97;2.60;;;;;;;;;;5163345;27;20049;-73
2023/10/10 11:16:10;;;;;;;7.70;2.75;;;;;;;;;;5177887;27;20309;-74
2023/10/10 11:19:04;;;;;;;9.60;2.90;;;;;;;;;;5178006;27;20022;-73
2023/10/10 11:21:53;;;;;;;3.80;2.75;;;;;;;;;;5162642;27;20026;-73
2023/10/10 11:24:39;;;;;;;4.68;2.45;;;;;;;;;;5163722;27;20042;-73
2023/10/10 11:27:29;;;;;;;14.35;2.83;;;;;;;;;;5177378;27;20448;-74
2023/10/10 11:30:24;;;;;;;13.82;2.60;;;;;;;;;;5163481;27;20033;-75
2023/10/10 11:33:16;;;;;;;7.03;2.10;;;;;;;;;;5178369;27;20470;-74
2023/10/10 11:36:21;;;;;;;7.20;2.70;;;;;;;;;;5163063;27;20033;-73
2023/10/10 11:39:25;;;;;;;9.98;3.45;;;;;;;;;;5177823;27;20014;-73
2023/10/10 11:42:13;;;;;;;10.32;3.13;;;;;;;;;;5178108;27;20029;-73
2023/10/10 11:44:59;;;;;;;8.75;3.88;;;;;;;;;;5178400;27;20097;-74
2023/10/10 11:47:45;;;;;;;6.60;3.45;;;;;;;;;;5163100;27;20032;-74
2023/10/10 11:50:43;;;;;;;8.23;3.55;;;;;;;;;;5186616;27;20057;-73
2023/10/10 11:53:29;;;;;;;9.07;3.13;;;;;;;;;;5195592;27;20033;-74
2023/10/10 11:56:17;;;;;;;6.07;3.00;;;;;;;;;;5178623;27;20006;-75
2023/10/10 11:59:14;;;;;;;5.60;2.88;;;;;;;;;;5181380;27;20053;-74
2023/10/10 12:02:13;;;;;;;6.00;2.80;;;;;;;;;;5181525;27;20356;-73
2023/10/10 12:05:14;;;;;;;4.97;2.90;;;;;;;;;;5159562;27;20025;-74
2023/10/10 12:08:01;;;;;;;9.10;3.00;;;;;;;;;;5156519;27;20363;-75
2023/10/10 12:10:53;;;;;;;8.77;2.70;;;;;;;;;;5155931;27;20046;-73
2023/10/10 12:13:38;;;;;;;6.65;2.50;;;;;;;;;;5141492;27;20015;-74
2023/10/10 12:16:24;;;;;;;11.40;2.97;;;;;;;;;;5169094;27;20022;-74
2023/10/10 12:19:10;;;;;;;6.60;2.70;;;;;;;;;;5161818;27;20113;-74
2023/10/10 12:21:59;;;;;;;5.40;2.67;;;;;;;;;;5176224;27;20018;-73
2023/10/10 12:24:45;;;;;;;7.15;2.67;;;;;;;;;;5176971;27;20428;-72
2023/10/10 12:27:31;;;;;;;6.00;2.40;;;;;;;;;;5177350;27;20022;-72
2023/10/10 12:30:19;;;;;;;18.58;2.97;;;;;;;;;;5175861;27;20028;-73
2023/10/10 12:33:05;;;;;;;9.88;3.20;;;;;;;;;;5161215;27;20028;-73
2023/10/10 12:35:51;;;;;;;6.63;2.65;;;;;;;;;;5175547;27;20068;-73
2023/10/10 12:38:40;;;;;;;6.03;2.40;;;;;;;;;;5161684;27;20033;-73
2023/10/10 12:41:27;;;;;;;10.55;2.30;;;;;;;;;;5176062;27;20014;-73
2023/10/10 12:44:13;;;;;;;5.68;2.63;;;;;;;;;;5176947;27;20067;-73
2023/10/10 12:46:59;;;;;;;5.55;2.67;;;;;;;;;;5176573;27;20010;-73
2023/10/10 12:49:44;;;;;;;6.40;2.67;;;;;;;;;;5175220;27;20137;-74
2023/10/10 12:52:45;;;;;;;5.30;2.70;;;;;;;;;;5160584;27;20105;-72
2023/10/10 12:55:30;;;;;;;8.60;2.90;;;;;;;;;;5160452;27;20108;-73
2023/10/10 12:58:16;;;;;;;8.60;2.58;;;;;;;;;;5175343;27;20022;-73
2023/10/10 13:01:02;;;;;;;9.77;2.85;;;;;;;;;;5174648;27;20086;-73
2023/10/10 13:03:48;;;;;;;6.07;2.95;;;;;;;;;;5175260;27;20021;-72
2023/10/10 13:06:35;;;;;;;5.30;2.60;;;;;;;;;;5159329;27;20026;-72
2023/10/10 13:09:22;;;;;;;10.57;3.50;;;;;;;;;;5160684;27;20041;-72
2023/10/10 13:12:07;;;;;;;9.68;3.10;;;;;;;;;;5175493;27;20029;-72
2023/10/10 13:15:05;;;;;;;6.90;3.22;;;;;;;;;;5160514;27;20019;-73
2023/10/10 13:17:53;;;;;;;10.43;3.72;;;;;;;;;;5175491;27;20042;-71
2023/10/10 13:20:39;;;;;;;7.28;2.83;;;;;;;;;;5174677;27;20105;-73
2023/10/10 13:23:24;;;;;;;10.15;3.10;;;;;;;;;;5160479;27;20440;-75
2023/10/10 13:26:10;;;;;;;11.23;3.42;;;;;;;;;;5159540;27;20026;-74
2023/10/10 13:28:57;;;;;;;5.28;3.05;;;;;;;;;;5145317;27;20021;-73
2023/10/10 13:31:46;;;;;;;7.53;2.75;;;;;;;;;;5173924;27;20022;-73
2023/10/10 13:34:32;;;;;;;8.90;3.08;;;;;;;;;;5174043;27;20034;-73
2023/10/10 13:37:18;;;;;;;12.32;2.85;;;;;;;;;;5175095;27;20078;-73
2023/10/10 13:40:05;;;;;;;8.70;3.00;;;;;;;;;;5159598;27;20015;-71
2023/10/10 13:42:51;;;;;;;7.65;3.22;;;;;;;;;;5174530;27;20070;-69
2023/10/10 13:45:41;;;;;;;8.40;2.78;;;;;;;;;;5159851;27;20029;-70
2023/10/10 13:48:27;;;;;;;8.40;3.40;;;;;;;;;;5117781;27;1163621;-68
2023/10/10 13:51:15;;;;;;;9.27;3.00;;;;;;;;;;5175251;27;20033;-69
2023/10/10 13:54:01;;;;;;;10.73;3.25;;;;;;;;;;5176111;27;20043;-69
2023/10/10 13:56:47;;;;;;;9.57;2.70;;;;;;;;;;5173961;27;20037;-68
2023/10/10 13:59:33;;;;;;;8.98;3.30;;;;;;;;;;5175477;27;20419;-68
2023/10/10 14:02:20;;;;;;;8.23;3.00;;;;;;;;;;5159568;27;20018;-70
2023/10/10 14:05:07;;;;;;;10.82;3.13;;;;;;;;;;5175516;27;20081;-69
2023/10/10 14:07:54;;;;;;;8.35;3.30;;;;;;;;;;5174846;27;20079;-74
2023/10/10 14:10:40;;;;;;;9.35;2.90;;;;;;;;;;5160835;27;20022;-75
2023/10/10 14:13:27;;;;;;;5.93;2.80;;;;;;;;;;5174350;27;20022;-74
2023/10/10 14:16:13;;;;;;;12.85;3.10;;;;;;;;;;5160369;27;20018;-74
2023/10/10 14:19:01;;;;;;;9.77;2.97;;;;;;;;;;5175247;27;20031;-72
2023/10/10 14:21:47;;;;;;;9.77;3.40;;;;;;;;;;5161046;27;20018;-75
2023/10/10 14:24:33;;;;;;;10.95;3.42;;;;;;;;;;5148386;27;20026;-72
2023/10/10 14:27:20;;;;;;;11.25;3.40;;;;;;;;;;5154660;27;20011;-71
2023/10/10 14:30:20;;;;;;;8.35;3.00;;;;;;;;;;5154869;27;20421;-71
2023/10/10 14:33:08;;;;;;;13.10;3.03;;;;;;;;;;5155190;27;20079;-71
2023/10/10 14:35:54;;;;;;;6.85;3.03;;;;;;;;;;5154296;27;20022;-72
2023/10/10 14:38:46;;;;;;;11.27;3.10;;;;;;;;;;5154868;27;20011;-70
2023/10/10 14:41:32;;;;;;;8.27;2.50;;;;;;;;;;5158321;27;20015;-74
2023/10/10 14:44:17;;;;;;;7.93;2.78;;;;;;;;;;5157978;27;20023;-72
2023/10/10 14:47:04;;;;;;;8.80;3.22;;;;;;;;;;5159412;27;20094;-71
2023/10/10 14:49:56;;;;;;;7.60;2.70;;;;;;;;;;5158170;27;20055;-71
2023/10/10 14:52:47;;;;;;;10.43;3.17;;;;;;;;;;5158145;27;20022;-72
2023/10/10 14:55:39;;;;;;;9.20;2.80;;;;;;;;;;5143271;27;20094;-74
2023/10/10 14:58:25;;;;;;;10.77;2.70;;;;;;;;;;5159152;27;20060;-72
2023/10/10 15:01:17;;;;;;;9.27;2.72;;;;;;;;;;5157794;27;20043;-75
2023/10/10 15:04:03;;;;;;;8.40;2.63;;;;;;;;;;5157636;27;20500;-75
2023/10/10 15:06:54;;;;;;;8.65;2.70;;;;;;;;;;5143402;27;20059;-75
2023/10/10 15:09:40;;;;;;;12.63;2.70;;;;;;;;;;5158401;27;20030;-73
2023/10/10 15:12:25;;;;;;;6.88;2.63;;;;;;;;;;5158041;27;20114;-74
2023/10/10 15:15:11;;;;;;;10.05;2.95;;;;;;;;;;5158204;27;20042;-75
2023/10/10 15:17:56;;;;;;;7.38;2.50;;;;;;;;;;5158964;27;20468;-73
2023/10/10 15:20:48;;;;;;;8.80;2.58;;;;;;;;;;5158033;27;20022;-74
2023/10/10 15:23:33;;;;;;;6.22;2.80;;;;;;;;;;5161572;27;20022;-75
2023/10/10 15:26:20;;;;;;;6.25;2.60;;;;;;;;;;5178308;27;20007;-74
2023/10/10 15:29:10;;;;;;;9.05;2.70;;;;;;;;;;5177212;27;20022;-73
2023/10/10 15:31:56;;;;;;;8.18;2.40;;;;;;;;;;5177002;27;20026;-73
2023/10/10 15:34:44;;;;;;;7.93;2.60;;;;;;;;;;5177706;27;20049;-72
2023/10/10 15:37:31;;;;;;;7.47;2.50;;;;;;;;;;5177256;27;20022;-71
2023/10/10 15:40:26;;;;;;;9.02;3.05;;;;;;;;;;5176756;27;20022;-72
2023/10/10 15:43:15;;;;;;;7.50;2.92;;;;;;;;;;5178483;27;20018;-71
2023/10/10 15:46:06;;;;;;;8.98;2.53;;;;;;;;;;5177942;27;20356;-71
2023/10/10 15:48:52;;;;;;;7.95;2.38;;;;;;;;;;5178641;27;20047;-72
2023/10/10 15:51:38;;;;;;;7.32;2.58;;;;;;;;;;5176411;27;20022;-72
2023/10/10 15:54:29;;;;;;;11.35;2.70;;;;;;;;;;5178806;27;20032;-71
2023/10/10 15:57:14;;;;;;;8.40;2.55;;;;;;;;;;5178985;27;20388;-74
2023/10/10 16:00:07;;;;;;;4.93;2.33;;;;;;;;;;5179047;27;20080;-70
2023/10/10 16:02:54;;;;;;;7.07;2.30;;;;;;;;;;5178755;27;20444;-70
2023/10/10 16:05:41;;;;;;;8.80;2.42;;;;;;;;;;5165195;27;20042;-72
2023/10/10 16:08:29;;;;;;;6.80;2.33;;;;;;;;;;5166450;27;20014;-70
2023/10/10 16:11:18;;;;;;;13.45;2.70;;;;;;;;;;5167171;27;20367;-70
2023/10/10 16:14:23;;;;;;;7.22;2.65;;;;;;;;;;5180645;27;20049;-70
2023/10/10 16:17:15;;;;;;;4.88;2.40;;;;;;;;;;5168035;27;20050;-72
2023/10/10 16:20:05;;;;;;;9.02;2.72;;;;;;;;;;5176742;27;20010;-72
2023/10/10 16:22:52;;;;;;;12.00;2.60;;;;;;;;;;5176402;27;20400;-73
2023/10/10 16:25:38;;;;;;;8.73;2.33;;;;;;;;;;5156608;27;20033;-72
2023/10/10 16:28:24;;;;;;;4.55;2.45;;;;;;;;;;5155845;27;20025;-71
2023/10/10 16:31:11;;;;;;;8.90;3.08;;;;;;;;;;5156881;27;20026;-71
2023/10/10 16:33:57;;;;;;;6.82;2.40;;;;;;;;;;5158340;27;20440;-71
2023/10/10 16:36:48;;;;;;;11.15;3.20;;;;;;;;;;5157585;27;20018;-72
2023/10/10 16:39:34;;;;;;;7.45;2.60;;;;;;;;;;5156476;27;20022;-72
2023/10/10 16:42:23;;;;;;;5.93;2.65;;;;;;;;;;5157015;27;20364;-72
2023/10/10 16:45:10;;;;;;;13.75;3.17;;;;;;;;;;5160760;27;20022;-73
2023/10/10 16:47:56;;;;;;;10.65;2.92;;;;;;;;;;5159114;27;20019;-71
2023/10/10 16:50:42;;;;;;;6.85;2.80;;;;;;;;;;5158233;27;20121;-71
2023/10/10 16:53:28;;;;;;;9.50;2.80;;;;;;;;;;5158006;27;20110;-71
2023/10/10 16:56:14;;;;;;;11.95;2.60;;;;;;;;;;5157832;27;20403;-72
2023/10/10 16:59:00;;;;;;;15.13;2.40;;;;;;;;;;5143228;27;20035;-72
2023/10/10 17:01:46;;;;;;;10.95;2.70;;;;;;;;;;5160047;27;20436;-71
2023/10/10 17:04:33;;;;;;;9.43;2.40;;;;;;;;;;5164715;27;20011;-72
2023/10/10 17:07:19;;;;;;;7.03;2.38;;;;;;;;;;5162978;27;20026;-73
2023/10/10 17:10:05;;;;;;;8.02;2.38;;;;;;;;;;5157613;27;20030;-72
2023/10/10 17:12:51;;;;;;;7.85;2.40;;;;;;;;;;5159689;27;20014;-72
2023/10/10 17:15:38;;;;;;;9.25;2.55;;;;;;;;;;5159313;27;20027;-72
2023/10/10 17:18:24;;;;;;;5.47;2.15;;;;;;;;;;5142252;27;20432;-73
2023/10/10 17:21:13;;;;;;;9.77;2.22;;;;;;;;;;5160379;27;20088;-72
2023/10/10 17:24:01;;;;;;;3.83;2.08;;;;;;;;;;5171097;27;20070;-73
2023/10/10 17:26:47;;;;;;;4.78;2.17;;;;;;;;;;5163876;27;20037;-70
2023/10/10 17:29:35;;;;;;;6.10;2.13;;;;;;;;;;5176380;27;20037;-68
2023/10/10 17:32:22;;;;;;;5.07;2.00;;;;;;;;;;5178698;27;20143;-72
2023/10/10 17:35:08;;;;;;;6.80;2.22;;;;;;;;;;5179913;27;20022;-75
2023/10/10 17:37:54;;;;;;;7.15;2.17;;;;;;;;;;5179243;27;20042;-72
2023/10/10 17:40:40;;;;;;;6.40;1.95;;;;;;;;;;5176821;27;20022;-73
2023/10/10 17:43:25;;;;;;;12.23;2.17;;;;;;;;;;5178664;27;20095;-72
2023/10/10 17:46:15;;;;;;;10.07;2.33;;;;;;;;;;5162528;27;20014;-73
2023/10/10 17:49:01;;;;;;;9.00;2.38;;;;;;;;;;5176349;27;20046;-74
2023/10/10 17:51:48;;;;;;;7.55;2.15;;;;;;;;;;5176798;27;20436;-75
2023/10/10 17:54:33;;;;;;;6.85;1.90;;;;;;;;;;5176959;27;20045;-75
2023/10/10 17:57:21;;;;;;;8.15;2.30;;;;;;;;;;5176143;27;20399;-70
2023/10/10 18:00:13;;;;;;;8.10;2.40;;;;;;;;;;5161400;27;20026;-72
2023/10/10 18:03:00;;;;;;;8.02;2.17;;;;;;;;;;5160197;27;20015;-72
2023/10/10 18:05:46;;;;;;;5.45;1.90;;;;;;;;;;5174618;27;20363;-72
2023/10/10 18:08:31;;;;;;;8.30;2.20;;;;;;;;;;5161275;27;20412;-72
2023/10/10 18:11:17;;;;;;;10.35;2.65;;;;;;;;;;5174624;27;20022;-72
2023/10/10 18:14:04;;;;;;;8.35;2.10;;;;;;;;;;5176961;27;20464;-72
2023/10/10 18:16:49;;;;;;;5.38;2.40;;;;;;;;;;5179994;27;20022;-70
2023/10/10 18:19:40;;;;;;;8.80;2.28;;;;;;;;;;5164547;27;20015;-73
2023/10/10 18:22:26;;;;;;;3.83;1.80;;;;;;;;;;5178640;27;20018;-74
2023/10/10 18:25:15;;;;;;;4.35;2.10;;;;;;;;;;5161644;27;20019;-71
2023/10/10 18:28:00;;;;;;;5.70;2.13;;;;;;;;;;5180236;27;20443;-71
2023/10/10 18:30:46;;;;;;;6.32;2.08;;;;;;;;;;5172751;27;20540;-70
2023/10/10 18:33:32;;;;;;;5.15;1.70;;;;;;;;;;5170050;27;20352;-70
2023/10/10 18:36:17;;;;;;;7.40;2.10;;;;;;;;;;5177854;27;20467;-71
2023/10/10 18:39:03;;;;;;;13.68;2.10;;;;;;;;;;5179112;27;20101;-73
2023/10/10 18:41:49;;;;;;;8.27;2.00;;;;;;;;;;5163622;27;20010;-71
2023/10/10 18:44:35;;;;;;;9.63;2.05;;;;;;;;;;5179316;27;20042;-80
2023/10/10 18:47:21;;;;;;;7.22;2.15;;;;;;;;;;5178702;27;20018;-80
2023/10/10 18:50:10;;;;;;;12.93;2.15;;;;;;;;;;5178636;27;20081;-79
2023/10/10 18:53:01;;;;;;;5.43;2.08;;;;;;;;;;5165133;27;20039;-78
2023/10/10 18:55:49;;;;;;;3.78;2.25;;;;;;;;;;5164796;27;20037;-79
2023/10/10 18:58:38;;;;;;;7.25;2.17;;;;;;;;;;5164118;27;20054;-78
2023/10/10 19:01:24;;;;;;;7.80;2.25;;;;;;;;;;5179399;27;20355;-78
2023/10/10 19:04:10;;;;;;;6.50;2.20;;;;;;;;;;5164476;27;20432;-79
2023/10/10 19:06:56;;;;;;;4.38;2.17;;;;;;;;;;5179047;27;20022;-76